createdAt,value
2018-02-18T00:01:30.540Z,30.30
2018-02-18T00:03:58.090Z,29.50
2018-02-18T00:06:26.008Z,29.42
2018-02-18T00:08:53.664Z,27.27
2018-02-18T00:11:21.238Z,26.70
2018-02-18T00:13:55.098Z,28.17
2018-02-18T00:16:22.943Z,27.47
2018-02-18T00:18:50.538Z,28.57
2018-02-18T00:21:18.411Z,29.33
2018-02-18T00:23:46.409Z,28.67
2018-02-18T00:26:14.309Z,26.73
2018-02-18T00:28:42.147Z,29.03
2018-02-18T00:31:09.845Z,26.20
2018-02-18T00:33:37.535Z,28.58
2018-02-18T00:36:05.219Z,27.03
2018-02-18T00:38:32.780Z,28.62
2018-02-18T00:41:00.313Z,27.83
2018-02-18T00:43:27.959Z,27.87
2018-02-18T00:45:56.327Z,26.40
2018-02-18T00:48:24.070Z,28.00
2018-02-18T00:50:51.730Z,26.87
2018-02-18T00:53:19.275Z,26.33
2018-02-18T00:55:47.364Z,27.07
2018-02-18T00:58:14.998Z,27.13
2018-02-18T01:00:42.580Z,25.77
2018-02-18T01:03:10.139Z,27.00
2018-02-18T01:05:38.381Z,24.70
2018-02-18T01:08:06.379Z,25.20
2018-02-18T01:10:33.979Z,27.53
2018-02-18T01:13:01.566Z,26.90
2018-02-18T01:15:29.172Z,25.40
2018-02-18T01:17:56.800Z,26.90
2018-02-18T01:20:24.331Z,26.20
2018-02-18T01:22:51.995Z,24.83
2018-02-18T01:25:19.904Z,25.73
2018-02-18T01:27:47.525Z,23.50
2018-02-18T01:30:15.175Z,23.93
2018-02-18T01:32:43.025Z,25.87
2018-02-18T01:35:10.680Z,26.20
2018-02-18T01:37:38.295Z,25.00
2018-02-18T01:40:05.913Z,26.30
2018-02-18T01:42:34.288Z,24.40
2018-02-18T01:45:02.013Z,27.43
2018-02-18T01:47:30.236Z,26.60
2018-02-18T01:49:57.855Z,26.57
2018-02-18T01:52:25.480Z,25.00
2018-02-18T01:54:53.024Z,24.20
2018-02-18T01:57:20.714Z,24.63
2018-02-18T01:59:48.329Z,23.13
2018-02-18T02:02:16.200Z,24.03
2018-02-18T02:04:43.729Z,23.80
2018-02-18T02:07:11.355Z,22.83
2018-02-18T02:09:39.106Z,24.45
2018-02-18T02:12:06.796Z,25.42
2018-02-18T02:14:34.395Z,27.03
2018-02-18T02:17:02.315Z,26.77
2018-02-18T02:19:29.849Z,25.40
2018-02-18T02:21:57.423Z,24.27
2018-02-18T02:24:25.040Z,24.95
2018-02-18T02:26:52.624Z,25.17
2018-02-18T02:29:20.314Z,23.80
2018-02-18T02:31:47.979Z,25.30
2018-02-18T02:34:15.599Z,24.23
2018-02-18T02:36:43.405Z,25.77
2018-02-18T02:39:10.965Z,23.40
2018-02-18T02:41:38.691Z,25.37
2018-02-18T02:44:06.228Z,23.43
2018-02-18T02:46:34.043Z,23.73
2018-02-18T02:49:01.702Z,23.27
2018-02-18T02:51:29.485Z,24.52
2018-02-18T02:53:57.024Z,24.07
2018-02-18T02:56:25.315Z,22.60
2018-02-18T02:58:53.073Z,23.50
2018-02-18T03:01:20.655Z,23.30
2018-02-18T03:03:48.226Z,24.77
2018-02-18T03:06:16.972Z,24.27
2018-02-18T03:08:44.732Z,25.17
2018-02-18T03:11:12.534Z,24.40
2018-02-18T03:13:40.279Z,24.30
2018-02-18T03:16:08.056Z,23.53
2018-02-18T03:18:35.841Z,22.57
2018-02-18T03:21:03.539Z,22.60
2018-02-18T03:23:31.069Z,21.63
2018-02-18T03:25:58.595Z,21.43
2018-02-18T03:28:26.125Z,22.60
2018-02-18T03:30:53.705Z,22.87
2018-02-18T03:33:21.383Z,22.30
2018-02-18T03:35:48.992Z,21.80
2018-02-18T03:38:16.748Z,23.87
2018-02-18T03:40:44.596Z,24.10
2018-02-18T03:43:12.182Z,22.40
2018-02-18T03:45:39.756Z,23.25
2018-02-18T03:48:07.388Z,21.20
2018-02-18T03:50:35.103Z,20.95
2018-02-18T03:53:02.824Z,22.97
2018-02-18T03:55:30.625Z,23.43
2018-02-18T03:57:58.444Z,22.75
2018-02-18T04:00:25.985Z,23.43
2018-02-18T04:02:53.920Z,22.47
2018-02-18T04:05:21.480Z,23.23
2018-02-18T04:07:49.132Z,22.90
2018-02-18T04:10:16.820Z,22.03
2018-02-18T04:12:44.348Z,21.70
2018-02-18T04:15:12.185Z,23.17
2018-02-18T04:17:39.856Z,20.48
2018-02-18T04:20:07.630Z,25.10
2018-02-18T04:22:35.218Z,26.07
2018-02-18T04:25:02.869Z,23.60
2018-02-18T04:27:30.574Z,25.13
2018-02-18T04:29:58.349Z,25.23
2018-02-18T04:32:26.064Z,26.37
2018-02-18T04:34:54.354Z,60.83
2018-02-18T04:37:22.116Z,28.20
2018-02-18T04:39:49.671Z,25.80
2018-02-18T04:42:17.384Z,25.90
2018-02-18T04:44:45.024Z,24.15
2018-02-18T04:47:12.762Z,25.17
2018-02-18T04:49:40.861Z,24.97
2018-02-18T04:52:08.978Z,25.30
2018-02-18T04:54:36.636Z,24.60
2018-02-18T04:57:04.160Z,24.50
2018-02-18T04:59:32.042Z,25.17
2018-02-18T05:01:59.783Z,24.60
2018-02-18T05:04:28.360Z,25.57
2018-02-18T05:06:55.888Z,24.37
2018-02-18T05:09:23.431Z,56.25
2018-02-18T05:11:50.989Z,26.80
2018-02-18T05:14:18.605Z,24.80
2018-02-18T05:16:46.240Z,26.07
2018-02-18T05:19:13.905Z,26.10
2018-02-18T05:21:41.659Z,25.90
2018-02-18T05:24:09.784Z,27.83
2018-02-18T05:26:37.315Z,28.43
2018-02-18T05:29:05.404Z,26.53
2018-02-18T05:31:32.943Z,28.97
2018-02-18T05:34:00.516Z,30.98
2018-02-18T05:36:28.048Z,29.17
2018-02-18T05:38:56.835Z,27.70
2018-02-18T05:41:24.482Z,26.90
2018-02-18T05:43:52.609Z,28.55
2018-02-18T05:46:20.125Z,26.60
2018-02-18T05:48:47.685Z,26.80
2018-02-18T05:51:15.209Z,28.17
2018-02-18T05:53:42.758Z,27.03
2018-02-18T05:56:10.516Z,30.80
2018-02-18T05:58:38.255Z,32.37
2018-02-18T06:01:05.795Z,31.67
2018-02-18T06:03:33.901Z,30.00
2018-02-18T06:06:01.451Z,33.63
2018-02-18T06:08:29.113Z,37.10
2018-02-18T06:10:56.684Z,34.90
2018-02-18T06:13:24.535Z,53.43
2018-02-18T06:15:52.206Z,39.17
2018-02-18T06:18:19.871Z,36.97
2018-02-18T06:20:47.425Z,39.13
2018-02-18T06:23:15.605Z,38.13
2018-02-18T06:25:43.240Z,37.43
2018-02-18T06:28:10.874Z,35.80
2018-02-18T06:30:38.540Z,34.87
2018-02-18T06:33:06.368Z,32.57
2018-02-18T06:35:33.954Z,29.77
2018-02-18T06:38:01.588Z,36.83
2018-02-18T06:40:29.134Z,30.50
2018-02-18T06:42:56.681Z,30.60
2018-02-18T06:45:24.419Z,29.47
2018-02-18T06:47:51.949Z,29.00
2018-02-18T06:50:20.307Z,26.87
2018-02-18T06:52:48.018Z,29.07
2018-02-18T06:55:15.579Z,27.67
2018-02-18T06:57:43.120Z,27.00
2018-02-18T07:00:10.860Z,28.50
2018-02-18T07:02:38.459Z,27.53
2018-02-18T07:05:06.171Z,30.30
2018-02-18T07:07:33.709Z,30.63
2018-02-18T07:10:01.285Z,29.60
2018-02-18T07:12:29.140Z,29.17
2018-02-18T07:14:57.120Z,28.00
2018-02-18T07:17:24.738Z,26.50
2018-02-18T07:19:52.789Z,26.37
2018-02-18T07:22:20.515Z,27.27
2018-02-18T07:24:48.044Z,29.83
2018-02-18T07:27:15.587Z,29.87
2018-02-18T07:29:43.244Z,29.90
2018-02-18T07:32:11.116Z,28.27
2018-02-18T07:34:38.780Z,32.60
2018-02-18T07:37:06.418Z,32.43
2018-02-18T07:39:33.995Z,33.53
2018-02-18T07:42:01.625Z,33.57
2018-02-18T07:44:29.275Z,34.30
2018-02-18T07:46:56.839Z,33.90
2018-02-18T07:49:24.368Z,35.27
2018-02-18T07:51:52.424Z,31.20
2018-02-18T07:54:20.035Z,43.30
2018-02-18T07:56:47.843Z,34.30
2018-02-18T07:59:15.525Z,34.97
2018-02-18T08:01:43.364Z,32.20
2018-02-18T08:04:10.900Z,35.28
2018-02-18T08:06:38.494Z,33.17
2018-02-18T08:09:06.041Z,35.38
2018-02-18T08:11:33.690Z,28.62
2018-02-18T08:14:01.409Z,34.10
2018-02-18T08:16:29.070Z,30.77
2018-02-18T08:18:56.838Z,31.17
2018-02-18T08:21:24.520Z,29.60
2018-02-18T08:23:53.390Z,28.67
2018-02-18T08:26:21.000Z,29.47
2018-02-18T08:28:49.096Z,29.40
2018-02-18T08:31:16.739Z,29.90
2018-02-18T08:33:44.655Z,30.70
2018-02-18T08:36:12.180Z,28.17
2018-02-18T08:38:39.894Z,30.80
2018-02-18T08:41:07.797Z,30.60
2018-02-18T08:43:36.404Z,27.90
2018-02-18T08:46:04.338Z,31.17
2018-02-18T08:48:31.940Z,29.00
2018-02-18T08:50:59.458Z,31.57
2018-02-18T08:53:27.166Z,31.17
2018-02-18T08:55:54.829Z,33.20
2018-02-18T08:58:23.035Z,31.93
2018-02-18T09:00:50.586Z,27.90
2018-02-18T09:03:18.136Z,29.83
2018-02-18T09:05:45.866Z,27.53
2018-02-18T09:08:13.408Z,27.40
2018-02-18T09:10:40.941Z,29.43
2018-02-18T09:13:08.704Z,26.57
2018-02-18T09:15:36.360Z,27.70
2018-02-18T09:18:04.100Z,27.67
2018-02-18T09:20:31.797Z,23.93
2018-02-18T09:22:59.479Z,20.92
2018-02-18T09:25:27.140Z,22.23
2018-02-18T09:27:54.987Z,23.87
2018-02-18T09:30:22.539Z,25.20
2018-02-18T09:32:50.234Z,27.63
2018-02-18T09:35:17.934Z,25.17
2018-02-18T09:37:45.755Z,23.37
2018-02-18T09:40:13.330Z,24.87
2018-02-18T09:42:40.880Z,26.60
2018-02-18T09:45:08.983Z,24.37
2018-02-18T09:47:37.083Z,24.17
2018-02-18T09:50:04.874Z,26.77
2018-02-18T09:52:32.635Z,26.62
2018-02-18T09:55:00.315Z,26.37
2018-02-18T09:57:28.719Z,27.60
2018-02-18T09:59:56.400Z,25.75
2018-02-18T10:02:23.937Z,29.80
2018-02-18T10:04:51.547Z,26.80
2018-02-18T10:07:19.280Z,25.43
2018-02-18T10:09:46.879Z,27.50
2018-02-18T10:12:14.577Z,30.80
2018-02-18T10:14:42.178Z,29.35
2018-02-18T10:17:09.710Z,28.43
2018-02-18T10:19:37.394Z,30.33
2018-02-18T10:22:05.244Z,27.07
2018-02-18T10:24:32.984Z,29.10
2018-02-18T10:27:00.521Z,26.25
2018-02-18T10:29:28.185Z,28.13
2018-02-18T10:31:55.842Z,27.05
2018-02-18T10:34:23.502Z,29.70
2018-02-18T10:36:51.230Z,26.40
2018-02-18T10:39:19.186Z,27.27
2018-02-18T10:41:46.987Z,23.83
2018-02-18T10:44:14.725Z,28.40
2018-02-18T10:46:42.535Z,25.50
2018-02-18T10:49:10.156Z,26.12
2018-02-18T10:51:37.812Z,25.07
2018-02-18T10:54:05.455Z,25.65
2018-02-18T10:56:33.122Z,25.00
2018-02-18T10:59:00.674Z,23.13
2018-02-18T11:01:28.267Z,21.83
2018-02-18T11:03:55.876Z,24.47
2018-02-18T11:06:23.485Z,18.17
2018-02-18T11:08:51.111Z,19.27
2018-02-18T11:11:18.678Z,16.15
2018-02-18T11:13:46.349Z,16.40
2018-02-18T11:16:13.955Z,21.00
2018-02-18T11:18:41.777Z,15.85
2018-02-18T11:21:09.376Z,16.50
2018-02-18T11:23:36.895Z,15.77
2018-02-18T11:26:04.459Z,13.93
2018-02-18T11:28:32.106Z,14.07
2018-02-18T11:30:59.929Z,13.10
2018-02-18T11:33:27.624Z,15.57
2018-02-18T11:35:55.216Z,15.60
2018-02-18T11:38:22.854Z,16.60
2018-02-18T11:40:51.155Z,15.82
2018-02-18T11:43:18.913Z,15.57
2018-02-18T11:45:46.486Z,14.20
2018-02-18T11:48:14.042Z,15.20
2018-02-18T11:50:41.590Z,17.50
2018-02-18T11:53:10.310Z,19.33
2018-02-18T11:55:38.563Z,18.98
2018-02-18T11:58:06.255Z,16.60
2018-02-18T12:00:34.074Z,21.00
2018-02-18T12:03:01.834Z,19.20
2018-02-18T12:05:29.364Z,21.00
2018-02-18T12:07:56.999Z,18.63
2018-02-18T12:10:25.400Z,18.30
2018-02-18T12:12:53.250Z,17.60
2018-02-18T12:15:20.874Z,18.07
2018-02-18T12:17:49.152Z,18.60
2018-02-18T12:20:16.823Z,18.57
2018-02-18T12:22:44.534Z,18.53
2018-02-18T12:25:12.284Z,20.00
2018-02-18T12:27:39.921Z,18.17
2018-02-18T12:30:07.521Z,19.55
2018-02-18T12:32:35.045Z,18.63
2018-02-18T12:35:02.981Z,19.83
2018-02-18T12:37:30.539Z,17.53
2018-02-18T12:39:58.084Z,17.83
2018-02-18T12:42:25.845Z,17.80
2018-02-18T12:44:53.641Z,19.90
2018-02-18T12:47:21.290Z,19.23
2018-02-18T12:49:48.948Z,18.80
2018-02-18T12:52:16.920Z,19.50
2018-02-18T12:54:44.826Z,17.83
2018-02-18T12:57:12.446Z,16.43
2018-02-18T12:59:39.978Z,16.30
2018-02-18T13:02:07.575Z,16.53
2018-02-18T13:04:35.135Z,16.20
2018-02-18T13:07:02.740Z,17.20
2018-02-18T13:09:30.443Z,17.50
2018-02-18T13:11:58.047Z,18.00
2018-02-18T13:14:25.948Z,20.37
2018-02-18T13:16:53.613Z,19.43
2018-02-18T13:19:21.383Z,21.30
2018-02-18T13:21:49.166Z,20.30
2018-02-18T13:24:16.854Z,19.20
2018-02-18T13:26:44.738Z,22.03
2018-02-18T13:29:12.340Z,20.90
2018-02-18T13:31:40.162Z,25.20
2018-02-18T13:34:07.967Z,21.37
2018-02-18T13:36:35.599Z,19.93
2018-02-18T13:39:03.219Z,18.30
2018-02-18T13:41:30.895Z,20.53
2018-02-18T13:43:58.434Z,22.57
2018-02-18T13:46:25.980Z,19.80
2018-02-18T13:48:53.608Z,21.87
2018-02-18T13:51:21.440Z,19.90
2018-02-18T13:53:49.107Z,20.50
2018-02-18T13:56:16.788Z,19.98
2018-02-18T13:58:44.487Z,20.67
2018-02-18T14:01:12.215Z,18.07
2018-02-18T14:03:40.035Z,20.27
2018-02-18T14:06:07.580Z,20.57
2018-02-18T14:08:35.345Z,20.13
2018-02-18T14:11:03.035Z,19.90
2018-02-18T14:13:30.769Z,18.73
2018-02-18T14:15:58.331Z,18.63
2018-02-18T14:18:25.912Z,17.93
2018-02-18T14:20:53.609Z,19.00
2018-02-18T14:23:21.350Z,18.90
2018-02-18T14:25:49.030Z,17.90
2018-02-18T14:28:16.674Z,18.27
2018-02-18T14:30:44.599Z,17.50
2018-02-18T14:33:12.154Z,18.80
2018-02-18T14:35:39.821Z,18.83
2018-02-18T14:38:07.550Z,18.30
2018-02-18T14:40:35.098Z,18.00
2018-02-18T14:43:14.648Z,20.67
2018-02-18T14:45:54.240Z,20.93
2018-02-18T14:48:33.763Z,18.53
2018-02-18T14:51:13.829Z,20.57
2018-02-18T14:53:53.175Z,20.73
2018-02-18T14:59:21.903Z,22.80
2018-02-18T15:01:50.509Z,20.65
2018-02-18T15:04:18.076Z,17.83
2018-02-18T15:06:45.624Z,21.30
2018-02-18T15:09:13.441Z,22.70
2018-02-18T15:11:41.070Z,21.50
2018-02-18T15:14:08.736Z,20.40
2018-02-18T15:16:36.399Z,21.87
2018-02-18T15:19:03.974Z,20.70
2018-02-18T15:21:31.850Z,19.23
2018-02-18T15:23:59.521Z,20.90
2018-02-18T15:26:27.380Z,18.83
2018-02-18T15:28:54.971Z,19.27
2018-02-18T15:31:22.864Z,21.40
2018-02-18T15:33:50.458Z,21.03
2018-02-18T15:36:18.140Z,19.20
2018-02-18T15:38:45.824Z,19.33
2018-02-18T15:41:13.898Z,17.63
2018-02-18T15:43:41.678Z,19.60
2018-02-18T15:46:09.349Z,20.27
2018-02-18T15:48:37.308Z,19.33
2018-02-18T15:51:04.875Z,18.83
2018-02-18T15:53:32.533Z,21.90
2018-02-18T15:56:00.408Z,20.20
2018-02-18T15:58:28.006Z,20.17
2018-02-18T16:00:55.626Z,20.47
2018-02-18T16:03:23.159Z,22.00
2018-02-18T16:05:50.769Z,19.60
2018-02-18T16:08:18.444Z,18.50
2018-02-18T16:10:46.618Z,18.70
2018-02-18T16:13:14.793Z,20.40
2018-02-18T16:15:43.121Z,20.23
2018-02-18T16:18:10.859Z,20.33
2018-02-18T16:20:39.319Z,20.55
2018-02-18T16:23:07.268Z,19.17
2018-02-18T16:25:34.944Z,23.83
2018-02-18T16:28:02.833Z,18.23
2018-02-18T16:30:30.661Z,17.40
2018-02-18T16:32:59.571Z,18.20
2018-02-18T16:35:27.176Z,17.37
2018-02-18T16:37:55.346Z,18.03
2018-02-18T16:40:23.144Z,17.73
2018-02-18T16:42:50.931Z,19.23
2018-02-18T16:45:19.299Z,19.90
2018-02-18T16:47:46.930Z,18.40
2018-02-18T16:50:14.619Z,17.53
2018-02-18T16:52:42.300Z,17.30
2018-02-18T16:55:09.971Z,32.27
2018-02-18T16:57:37.734Z,19.20
2018-02-18T17:00:05.416Z,19.20
2018-02-18T17:02:33.290Z,19.80
2018-02-18T17:05:00.885Z,18.30
2018-02-18T17:07:28.604Z,19.23
2018-02-18T17:09:56.339Z,18.80
2018-02-18T17:12:24.265Z,18.92
2018-02-18T17:14:51.965Z,18.80
2018-02-18T17:17:19.656Z,18.30
2018-02-18T17:19:47.271Z,17.50
2018-02-18T17:22:14.835Z,19.60
2018-02-18T17:24:42.381Z,17.43
2018-02-18T17:27:09.916Z,17.93
2018-02-18T17:29:37.576Z,17.90
2018-02-18T17:32:05.439Z,17.87
2018-02-18T17:34:33.161Z,18.03
2018-02-18T17:37:00.820Z,17.73
2018-02-18T17:39:28.402Z,19.10
2018-02-18T17:41:56.680Z,17.37
2018-02-18T17:44:24.384Z,18.07
2018-02-18T17:46:52.108Z,20.30
2018-02-18T17:49:19.890Z,19.80
2018-02-18T17:51:47.655Z,18.33
2018-02-18T17:54:15.230Z,21.45
2018-02-18T17:56:43.115Z,19.73
2018-02-18T17:59:10.860Z,19.30
2018-02-18T18:01:38.744Z,20.73
2018-02-18T18:04:07.041Z,20.83
2018-02-18T18:06:34.692Z,21.07
2018-02-18T18:09:02.290Z,19.83
2018-02-18T18:11:30.004Z,20.57
2018-02-18T18:13:58.462Z,20.80
2018-02-18T18:16:26.186Z,21.03
2018-02-18T18:18:53.882Z,22.30
2018-02-18T18:21:21.756Z,21.77
2018-02-18T18:23:49.588Z,19.53
2018-02-18T18:26:17.116Z,21.10
2018-02-18T18:28:44.815Z,21.00
2018-02-18T18:31:12.871Z,22.50
2018-02-18T18:33:40.577Z,20.43
2018-02-18T18:36:08.755Z,22.60
2018-02-18T18:38:36.488Z,23.40
2018-02-18T18:41:04.410Z,22.33
2018-02-18T18:43:32.022Z,22.00
2018-02-18T18:45:59.592Z,22.57
2018-02-18T18:48:27.390Z,40.83
2018-02-18T18:50:54.990Z,27.77
2018-02-18T18:53:22.606Z,23.90
2018-02-18T18:55:50.177Z,24.30
2018-02-18T18:58:17.778Z,22.77
2018-02-18T19:00:45.358Z,24.83
2018-02-18T19:03:13.135Z,27.40
2018-02-18T19:05:40.932Z,25.87
2018-02-18T19:08:08.882Z,24.40
2018-02-18T19:10:36.441Z,26.80
2018-02-18T19:13:04.160Z,25.80
2018-02-18T19:15:31.737Z,24.67
2018-02-18T19:18:00.217Z,22.20
2018-02-18T19:20:27.758Z,23.40
2018-02-18T19:22:55.381Z,26.90
2018-02-18T19:25:23.010Z,24.90
2018-02-18T19:27:50.773Z,24.60
2018-02-18T19:30:18.459Z,24.77
2018-02-18T19:32:46.147Z,26.13
2018-02-18T19:35:13.809Z,26.07
2018-02-18T19:37:41.440Z,26.43
2018-02-18T19:40:09.955Z,27.07
2018-02-18T19:42:37.536Z,26.67
2018-02-18T19:45:05.114Z,26.43
2018-02-18T19:47:32.741Z,25.70
2018-02-18T19:50:00.371Z,27.73
2018-02-18T19:52:27.947Z,27.73
2018-02-18T19:54:56.576Z,25.40
2018-02-18T19:57:24.925Z,25.20
2018-02-18T19:59:53.037Z,24.83
2018-02-18T20:02:21.014Z,27.23
2018-02-18T20:04:49.628Z,25.43
2018-02-18T20:07:17.311Z,27.03
2018-02-18T20:09:44.934Z,26.17
2018-02-18T20:12:12.571Z,28.67
2018-02-18T20:14:40.284Z,25.90
2018-02-18T20:17:08.063Z,24.35
2018-02-18T20:19:35.815Z,26.77
2018-02-18T20:22:03.663Z,25.50
2018-02-18T20:24:31.347Z,27.50
2018-02-18T20:26:58.939Z,25.77
2018-02-18T20:29:26.729Z,24.73
2018-02-18T20:31:54.492Z,27.67
2018-02-18T20:34:22.203Z,25.07
2018-02-18T20:36:49.870Z,25.10
2018-02-18T20:39:17.431Z,23.90
2018-02-18T20:41:45.202Z,21.73
2018-02-18T20:44:12.772Z,20.80
2018-02-18T20:46:40.419Z,19.70
2018-02-18T20:49:08.016Z,18.23
2018-02-18T20:51:35.832Z,20.70
2018-02-18T20:54:03.616Z,15.90
2018-02-18T20:56:31.321Z,14.17
2018-02-18T20:58:59.107Z,13.87
2018-02-18T21:01:26.942Z,13.73
2018-02-18T21:03:54.791Z,13.00
2018-02-18T21:06:22.949Z,12.33
2018-02-18T21:08:50.755Z,12.55
2018-02-18T21:11:18.471Z,11.97
2018-02-18T21:13:46.298Z,10.93
2018-02-18T21:16:14.004Z,13.53
2018-02-18T21:18:41.584Z,14.00
2018-02-18T21:21:09.151Z,11.23
2018-02-18T21:23:36.879Z,12.27
2018-02-18T21:26:04.581Z,12.50
2018-02-18T21:28:32.166Z,12.03
2018-02-18T21:30:59.790Z,13.63
2018-02-18T21:33:27.652Z,13.03
2018-02-18T21:35:55.356Z,11.47
2018-02-18T21:38:22.992Z,11.90
2018-02-18T21:40:50.755Z,12.80
2018-02-18T21:43:18.492Z,12.48
2018-02-18T21:45:46.038Z,13.60
2018-02-18T21:48:13.655Z,12.50
2018-02-18T21:50:41.299Z,12.33
2018-02-18T21:53:09.232Z,12.73
2018-02-18T21:55:36.801Z,12.87
2018-02-18T21:58:04.424Z,12.60
2018-02-18T22:00:31.997Z,13.97
2018-02-18T22:02:59.968Z,14.97
2018-02-18T22:05:27.612Z,12.73
2018-02-18T22:07:55.156Z,12.57
2018-02-18T22:10:22.885Z,12.20
2018-02-18T22:12:50.476Z,12.60
2018-02-18T22:15:18.134Z,13.70
2018-02-18T22:17:45.720Z,12.70
2018-02-18T22:20:13.341Z,13.47
2018-02-18T22:22:40.941Z,12.57
2018-02-18T22:25:09.410Z,13.07
2018-02-18T22:27:37.532Z,13.10
2018-02-18T22:30:05.836Z,13.10
2018-02-18T22:32:33.539Z,13.33
2018-02-18T22:35:01.104Z,13.27
2018-02-18T22:37:28.979Z,14.10
2018-02-18T22:39:56.787Z,13.10
2018-02-18T22:42:24.405Z,14.70
2018-02-18T22:44:51.932Z,13.53
2018-02-18T22:47:19.707Z,12.43
2018-02-18T22:49:47.954Z,14.13
2018-02-18T22:52:15.741Z,12.52
2018-02-18T22:54:43.352Z,13.83
2018-02-18T22:57:11.136Z,13.03
2018-02-18T22:59:38.749Z,14.60
2018-02-18T23:02:06.445Z,13.77
2018-02-18T23:04:34.352Z,14.00
2018-02-18T23:07:07.749Z,12.73
2018-02-18T23:09:35.533Z,14.90
2018-02-18T23:12:03.095Z,14.20
2018-02-18T23:14:30.807Z,15.67
2018-02-18T23:16:58.349Z,15.47
2018-02-18T23:19:26.234Z,14.90
2018-02-18T23:21:53.756Z,13.47
2018-02-18T23:24:21.573Z,15.00
2018-02-18T23:26:49.116Z,16.30
2018-02-18T23:29:16.691Z,15.63
2018-02-18T23:31:44.215Z,14.60
2018-02-18T23:34:11.811Z,15.00
2018-02-18T23:36:39.559Z,15.27
2018-02-18T23:39:07.230Z,15.10
2018-02-18T23:41:35.090Z,15.20
2018-02-18T23:44:02.660Z,13.88
2018-02-18T23:46:30.564Z,14.63
2018-02-18T23:48:58.223Z,10.60
2018-02-18T23:51:25.771Z,15.13
2018-02-18T23:53:53.370Z,12.73
2018-02-18T23:56:21.275Z,13.23
2018-02-18T23:58:48.995Z,12.90
